Time;durP1;ratioP1;P1;durP2;ratioP2;P2;SDS_P1;SDS_P2;PMS_P1;PMS_P2;Temp;Humidity;BMP_temperature;BMP_pressure;BME280_temperature;BME280_humidity;BME280_pressure;Samples;Min_cycle;Max_cycle;Signal;HPM_P1;HPM_P2
2022/07/02 00:02:07;;;;;;;;;6.00;4.75;;;;;18.08;47.41;101842.47;6247817;22;45582;-74
2022/07/02 00:04:34;;;;;;;;;9.00;7.00;;;;;18.08;47.22;101836.25;6274320;22;45364;-73
2022/07/02 00:06:59;;;;;;;;;7.00;7.00;;;;;18.07;47.61;101832.72;6275754;22;45522;-73
2022/07/02 00:09:27;;;;;;;;;8.25;8.25;;;;;18.07;47.48;101838.06;6273887;22;46002;-74
2022/07/02 00:11:59;;;;;;;;;9.50;8.00;;;;;18.05;47.55;101839.00;6276077;22;45429;-75
2022/07/02 00:14:25;;;;;;;;;8.00;7.00;;;;;18.02;47.56;101825.72;6276536;22;45220;-74
2022/07/02 00:16:53;;;;;;;;;8.25;8.25;;;;;18.00;47.61;101839.06;6250752;22;45452;-76
2022/07/02 00:19:19;;;;;;;;;9.00;8.25;;;;;17.98;48.03;101837.31;6278751;22;45301;-75
2022/07/02 00:21:46;;;;;;;;;6.00;6.00;;;;;17.94;47.84;101838.28;6250757;22;46041;-73
2022/07/02 00:24:11;;;;;;;;;9.50;8.00;;;;;17.89;48.03;101840.16;6251397;22;45199;-76
2022/07/02 00:26:39;;;;;;;;;5.00;4.67;;;;;17.88;48.54;101838.38;6278914;22;45204;-73
2022/07/02 00:29:36;;;;;;;;;6.50;5.75;;;;;17.82;48.42;101840.22;6251297;22;47472;-72
2022/07/02 00:32:03;;;;;;;;;6.00;5.75;;;;;17.80;48.56;101851.81;6277127;22;45246;-75
2022/07/02 00:34:32;;;;;;;;;5.75;5.75;;;;;17.75;48.17;101843.88;6251307;22;45189;-76
2022/07/02 00:36:58;;;;;;;;;8.25;7.25;;;;;17.72;48.83;101843.94;6278513;22;45382;-76
2022/07/02 00:39:23;;;;;;;;;7.75;7.75;;;;;17.70;48.83;101844.88;6249826;22;47191;-76
2022/07/02 00:41:50;;;;;;;;;7.00;7.00;;;;;17.69;48.86;101840.41;6279186;22;45167;-73
2022/07/02 00:44:18;;;;;;;;;6.00;6.00;;;;;17.67;48.99;101839.56;6279429;22;45172;-76
2022/07/02 00:46:46;;;;;;;;;7.50;7.25;;;;;17.61;48.82;101832.53;6250692;22;45470;-76
2022/07/02 00:49:12;;;;;;;;;6.75;6.00;;;;;17.61;49.11;101833.47;6276656;22;47258;-73
2022/07/02 00:51:37;;;;;;;;;8.25;6.25;;;;;17.60;49.05;101833.47;6279044;22;45152;-73
2022/07/02 00:54:03;;;;;;;;;8.25;6.50;;;;;17.55;49.08;101828.19;6279003;22;45150;-73
2022/07/02 00:56:28;;;;;;;;;8.50;8.00;;;;;17.51;49.29;101821.19;6278883;22;45362;-76
2022/07/02 00:58:55;;;;;;;;;8.00;8.00;;;;;17.51;49.32;101823.84;6250721;22;47352;-76
2022/07/02 01:01:21;;;;;;;;;7.75;7.75;;;;;17.47;49.47;101827.44;6251095;22;45248;-76
2022/07/02 01:03:48;;;;;;;;;9.00;9.00;;;;;17.49;49.69;101825.63;6278614;22;45263;-74
2022/07/02 01:06:14;;;;;;;;;8.00;7.25;;;;;17.48;49.75;101825.66;6278690;22;45397;-74
2022/07/02 01:11:25;;;;;;;;;6.00;6.00;;;;;17.44;50.01;101826.63;6278552;22;45271;-75
2022/07/02 01:13:54;;;;;;;;;6.25;6.00;;;;;17.38;49.97;101815.16;6270889;22;45326;-74
2022/07/02 01:16:19;;;;;;;;;9.00;7.25;;;;;17.39;50.16;101813.38;6247299;22;45368;-74
2022/07/02 01:18:45;;;;;;;;;7.00;7.00;;;;;17.38;50.53;101823.13;6246976;22;46617;-74
2022/07/02 01:21:10;;;;;;;;;7.25;7.25;;;;;17.35;50.21;101820.53;6247634;22;45553;-74
2022/07/02 01:23:36;;;;;;;;;6.50;5.50;;;;;17.32;50.98;101823.22;6247700;22;45279;-74
2022/07/02 01:26:01;;;;;;;;;4.00;4.00;;;;;17.32;51.15;101825.91;6247547;22;45270;-73
2022/07/02 01:28:26;;;;;;;;;6.75;5.50;;;;;17.32;51.04;101825.00;6245181;22;48295;-74
2022/07/02 01:30:52;;;;;;;;;6.25;4.00;;;;;17.31;51.58;101833.88;6247708;22;45247;-74
2022/07/02 01:33:18;;;;;;;;;6.75;6.50;;;;;17.27;51.31;101830.41;6247560;22;45259;-74
2022/07/02 01:35:44;;;;;;;;;5.00;4.00;;;;;17.24;51.34;101834.88;6245534;22;45452;-74
2022/07/02 01:38:09;;;;;;;;;6.75;6.50;;;;;17.19;51.70;101843.81;6247278;22;45509;-74
2022/07/02 01:40:35;;;;;;;;;4.75;4.75;;;;;17.15;52.09;101841.19;6247664;22;45268;-74
2022/07/02 01:43:00;;;;;;;;;6.00;4.25;;;;;17.07;52.17;101832.44;6248004;22;45221;-75
2022/07/02 01:45:25;;;;;;;;;6.00;6.00;;;;;17.06;52.64;101842.22;6245801;22;45205;-74
2022/07/02 01:47:51;;;;;;;;;5.00;3.00;;;;;17.01;52.91;101836.06;6246930;22;46197;-74
2022/07/02 01:50:16;;;;;;;;;5.00;5.00;;;;;17.00;53.14;101838.72;6245481;22;45205;-74
2022/07/02 01:52:42;;;;;;;;;5.25;5.25;;;;;16.97;53.66;101835.25;6270336;22;45520;-74
2022/07/02 01:55:07;;;;;;;;;5.00;5.00;;;;;16.94;53.30;101835.25;6246628;22;46109;-74
2022/07/02 01:57:35;;;;;;;;;5.00;5.00;;;;;16.94;53.85;101835.25;6245470;22;46975;-75
2022/07/02 02:00:12;;;;;;;;;5.00;5.00;;;;;16.91;54.39;101835.28;6246341;22;45382;-74
2022/07/02 02:02:38;;;;;;;;;5.00;5.00;;;;;16.90;54.19;101833.53;6246301;22;45419;-74
2022/07/02 02:05:04;;;;;;;;;5.75;4.00;;;;;16.87;54.49;101822.94;6246076;22;45422;-74
2022/07/02 02:07:31;;;;;;;;;5.25;5.00;;;;;16.88;54.38;101830.00;6272027;22;46074;-73
2022/07/02 02:09:56;;;;;;;;;4.00;4.00;;;;;16.87;54.42;101828.25;6246731;22;45214;-74
2022/07/02 02:12:21;;;;;;;;;6.00;4.00;;;;;16.88;54.81;101824.69;6249703;22;45173;-74
2022/07/02 02:14:47;;;;;;;;;6.00;5.00;;;;;16.87;54.68;101828.25;6279678;22;45167;-74
2022/07/02 02:17:12;;;;;;;;;5.75;5.50;;;;;16.85;54.57;101827.41;6279158;22;46625;-74
2022/07/02 02:19:38;;;;;;;;;6.75;5.25;;;;;16.83;54.97;101823.00;6279402;22;45168;-75
2022/07/02 02:22:04;;;;;;;;;5.00;4.25;;;;;16.78;54.57;101816.84;6279404;22;45252;-74
2022/07/02 02:24:29;;;;;;;;;5.00;5.00;;;;;16.79;54.82;101818.63;6251755;22;45546;-74
2022/07/02 02:26:55;;;;;;;;;7.25;6.25;;;;;16.75;54.76;101817.72;6279179;22;45431;-74
2022/07/02 02:29:21;;;;;;;;;5.75;4.50;;;;;16.73;55.17;101823.09;6279684;22;45146;-74
2022/07/02 02:31:47;;;;;;;;;5.75;5.50;;;;;16.70;55.12;101811.59;6276994;22;45307;-74
2022/07/02 02:34:12;;;;;;;;;7.00;7.00;;;;;16.66;55.14;101808.09;6280200;22;45316;-74
2022/07/02 02:36:37;;;;;;;;;4.00;4.00;;;;;16.69;55.42;101809.84;6277735;22;46802;-74
2022/07/02 02:39:03;;;;;;;;;4.75;4.75;;;;;16.66;55.26;101815.19;6280529;22;45349;-74
2022/07/02 02:41:28;;;;;;;;;6.00;5.25;;;;;16.61;55.38;101804.59;6251962;22;45161;-73
2022/07/02 02:43:53;;;;;;;;;7.75;5.75;;;;;16.58;55.36;101803.78;6279510;22;45236;-74
2022/07/02 02:46:19;;;;;;;;;5.75;5.75;;;;;16.59;55.43;101809.06;6251500;22;47430;-75
2022/07/02 02:48:44;;;;;;;;;5.00;5.00;;;;;16.59;55.48;101811.72;6279240;22;45194;-74
2022/07/02 02:51:13;;;;;;;;;5.25;5.25;;;;;16.56;55.72;101800.25;6279475;22;45208;-74
2022/07/02 02:53:42;;;;;;;;;5.00;4.00;;;;;16.56;55.65;101803.78;6278925;22;45402;-74
2022/07/02 02:56:08;;;;;;;;;6.00;6.00;;;;;16.51;55.90;101808.25;6251221;22;47513;-75
2022/07/02 02:58:33;;;;;;;;;9.00;6.00;;;;;16.53;55.99;101812.66;6279125;22;45322;-75
2022/07/02 03:00:59;;;;;;;;;6.00;6.00;;;;;16.51;55.91;101809.13;6279349;22;45253;-74
2022/07/02 03:03:25;;;;;;;;;6.00;6.00;;;;;16.45;56.07;101808.34;6278795;22;45299;-74
2022/07/02 03:05:50;;;;;;;;;7.25;5.50;;;;;16.44;56.08;101799.50;6251475;22;48580;-75
2022/07/02 03:08:15;;;;;;;;;6.25;5.75;;;;;16.39;56.03;101800.44;6251218;22;45135;-74
2022/07/02 03:10:41;;;;;;;;;6.25;6.00;;;;;16.41;56.05;101802.19;6251618;22;45164;-74
2022/07/02 03:13:06;;;;;;;;;8.00;7.00;;;;;16.41;55.97;101807.50;6279060;22;45212;-74
2022/07/02 03:15:32;;;;;;;;;8.00;6.25;;;;;16.41;56.18;101815.47;6279284;22;45317;-74
2022/07/02 03:17:57;;;;;;;;;6.25;5.25;;;;;16.36;56.24;101806.66;6251357;22;45501;-74
2022/07/02 03:20:22;;;;;;;;;5.00;5.00;;;;;16.34;56.43;101815.56;6251782;22;45266;-74
2022/07/02 03:22:48;;;;;;;;;8.50;7.50;;;;;16.34;56.77;101810.25;6279334;22;45274;-74
2022/07/02 03:25:13;;;;;;;;;8.75;7.75;;;;;16.30;56.82;101809.38;6279229;22;45204;-74
2022/07/02 03:27:38;;;;;;;;;5.00;4.50;;;;;16.32;56.62;101819.09;6279361;22;45184;-74
2022/07/02 03:30:06;;;;;;;;;5.00;5.00;;;;;16.32;56.78;101815.56;6279532;22;45169;-74
2022/07/02 03:32:31;;;;;;;;;6.50;4.75;;;;;16.27;56.49;101807.63;6279235;22;45328;-75
2022/07/02 03:34:57;;;;;;;;;7.00;7.00;;;;;16.27;56.81;101810.28;6279075;22;46285;-74
2022/07/02 03:37:28;;;;;;;;;6.75;6.75;;;;;16.27;56.81;101812.94;6279051;22;45340;-73
2022/07/02 03:39:54;;;;;;;;;5.50;5.50;;;;;16.22;56.95;101804.13;6279123;22;45291;-74
2022/07/02 03:42:19;;;;;;;;;5.75;4.75;;;;;16.20;56.94;101808.59;6250910;22;45313;-74
2022/07/02 03:44:45;;;;;;;;;7.00;6.75;;;;;16.22;57.36;101809.44;6276407;22;46701;-74
2022/07/02 03:47:10;;;;;;;;;6.25;6.00;;;;;16.16;56.97;101800.66;6278917;22;45232;-74
2022/07/02 03:49:36;;;;;;;;;5.00;5.00;;;;;16.21;57.13;101820.09;6279177;22;45565;-74
2022/07/02 03:52:02;;;;;;;;;6.00;6.00;;;;;16.20;57.11;101811.25;6278907;22;45330;-74
2022/07/02 03:54:27;;;;;;;;;4.25;4.25;;;;;16.19;57.32;101812.13;6278901;22;45335;-74
2022/07/02 03:56:53;;;;;;;;;6.00;6.00;;;;;16.18;57.24;101821.00;6278721;22;45361;-74
2022/07/02 03:59:18;;;;;;;;;4.75;4.75;;;;;16.13;57.17;101809.53;6277049;22;45242;-74
2022/07/02 04:01:44;;;;;;;;;6.00;5.75;;;;;16.08;57.14;101806.94;6249577;22;45369;-74
2022/07/02 04:04:09;;;;;;;;;6.75;6.00;;;;;16.09;57.27;101807.81;6276745;22;47229;-74
2022/07/02 04:06:34;;;;;;;;;7.00;7.00;;;;;16.12;57.07;101820.16;6278622;22;45240;-74
2022/07/02 04:09:00;;;;;;;;;6.00;4.75;;;;;16.08;57.24;101808.72;6278970;22;45331;-74
2022/07/02 04:11:25;;;;;;;;;5.50;4.00;;;;;16.07;57.07;101815.81;6251134;22;45399;-74
2022/07/02 04:13:50;;;;;;;;;5.25;5.25;;;;;15.95;57.34;101799.97;6278438;22;46288;-74
2022/07/02 04:16:16;;;;;;;;;7.50;6.50;;;;;16.05;57.40;101820.25;6279098;22;45252;-74
2022/07/02 04:18:41;;;;;;;;;5.50;5.50;;;;;16.01;57.69;101809.66;6279058;22;45606;-75
2022/07/02 04:21:06;;;;;;;;;6.00;4.75;;;;;16.06;57.71;101827.34;6251221;22;45511;-74
2022/07/02 04:23:32;;;;;;;;;6.00;6.00;;;;;16.07;57.76;101810.50;6278801;22;46150;-74
2022/07/02 04:25:57;;;;;;;;;8.00;8.00;;;;;16.08;57.75;101814.03;6279234;22;45161;-74
2022/07/02 04:28:24;;;;;;;;;6.00;6.00;;;;;16.08;57.79;101809.59;6251551;22;45290;-74
2022/07/02 04:30:49;;;;;;;;;4.00;3.00;;;;;16.04;57.69;101799.03;6251168;22;45574;-74
2022/07/02 04:33:14;;;;;;;;;8.00;7.00;;;;;16.12;58.03;101820.16;6278567;22;45156;-74
2022/07/02 04:35:40;;;;;;;;;5.00;5.00;;;;;16.11;58.05;101813.97;6250940;22;45415;-73
2022/07/02 04:38:05;;;;;;;;;7.50;7.00;;;;;16.12;57.99;101821.09;6278761;22;45332;-74
2022/07/02 04:40:30;;;;;;;;;7.75;7.00;;;;;16.13;57.86;101825.47;6279019;22;45389;-74
2022/07/02 04:42:56;;;;;;;;;6.50;5.50;;;;;16.10;58.08;101823.72;6278600;22;46331;-74
2022/07/02 04:45:21;;;;;;;;;8.75;7.00;;;;;16.12;58.31;101818.41;6278743;22;45291;-74
2022/07/02 04:47:47;;;;;;;;;5.75;5.75;;;;;16.18;58.15;101825.44;6250419;22;45342;-74
2022/07/02 04:50:12;;;;;;;;;9.00;8.00;;;;;16.17;58.17;101819.25;6276598;22;45385;-74
2022/07/02 04:52:37;;;;;;;;;7.75;6.50;;;;;16.21;58.37;101814.78;6278573;22;45232;-74
2022/07/02 04:55:03;;;;;;;;;7.00;6.25;;;;;16.23;58.45;101805.03;6278885;22;45341;-74
2022/07/02 04:57:28;;;;;;;;;5.25;5.25;;;;;16.30;58.51;101822.66;6277060;22;45288;-74
2022/07/02 04:59:54;;;;;;;;;9.25;7.50;;;;;16.29;58.17;101819.13;6279102;22;45319;-74
2022/07/02 05:02:19;;;;;;;;;6.00;6.00;;;;;16.32;58.61;101819.09;6278445;22;46109;-74
2022/07/02 05:04:44;;;;;;;;;9.75;8.00;;;;;16.32;58.14;101820.88;6278865;22;45299;-74
2022/07/02 05:07:10;;;;;;;;;6.25;6.25;;;;;16.30;58.53;101820.91;6278781;22;45159;-74
2022/07/02 05:09:35;;;;;;;;;8.75;6.75;;;;;16.32;58.51;101816.44;6278482;22;45346;-74
2022/07/02 05:12:00;;;;;;;;;8.25;8.25;;;;;16.35;58.51;101815.53;6278053;22;45227;-74
2022/07/02 05:14:26;;;;;;;;;6.75;6.75;;;;;16.37;59.04;101815.50;6278387;22;45330;-75
2022/07/02 05:16:52;;;;;;;;;8.00;7.00;;;;;16.39;58.70;101808.41;6278620;22;45211;-74
2022/07/02 05:19:17;;;;;;;;;8.25;7.00;;;;;16.43;59.28;101810.13;6278870;22;45284;-74
2022/07/02 05:21:43;;;;;;;;;9.25;8.25;;;;;16.48;58.86;101816.28;6278538;22;45282;-75
2022/07/02 05:24:09;;;;;;;;;8.50;8.00;;;;;16.52;59.02;101818.03;6276081;22;45252;-75
2022/07/02 05:26:35;;;;;;;;;9.25;9.00;;;;;16.54;59.04;101806.47;6278208;22;45229;-76
2022/07/02 05:29:01;;;;;;;;;10.00;8.75;;;;;16.59;58.99;101809.06;6278659;22;45342;-74
2022/07/02 05:31:26;;;;;;;;;8.50;8.25;;;;;16.64;59.12;101820.53;6277939;22;45588;-75
2022/07/02 05:33:52;;;;;;;;;7.25;7.00;;;;;16.65;59.20;101814.31;6278516;22;45285;-75
2022/07/02 05:36:17;;;;;;;;;10.00;9.25;;;;;16.71;58.67;101814.25;6278626;22;45017;-73
2022/07/02 05:38:42;;;;;;;;;11.50;9.75;;;;;16.73;58.86;101816.88;6250320;22;45220;-74
2022/07/02 05:41:08;;;;;;;;;9.75;9.75;;;;;16.78;58.90;101814.19;6277965;22;46048;-74
2022/07/02 05:43:33;;;;;;;;;9.50;9.50;;;;;16.80;58.61;101815.94;6250036;22;45324;-74
2022/07/02 05:45:59;;;;;;;;;9.50;9.50;;;;;16.86;58.89;101818.50;6278447;22;45366;-73
2022/07/02 05:48:24;;;;;;;;;9.25;9.25;;;;;16.90;58.65;101806.06;6275793;22;45354;-74
2022/07/02 05:50:50;;;;;;;;;9.00;8.00;;;;;16.93;58.50;101811.34;6278207;22;45322;-74
2022/07/02 05:53:15;;;;;;;;;10.25;10.00;;;;;17.00;58.59;101820.13;6250138;22;45378;-74
2022/07/02 05:55:40;;;;;;;;;11.00;10.00;;;;;17.02;58.77;101816.53;6278492;22;45329;-74
2022/07/02 05:58:16;;;;;;;;;;;;;;;;;;;;;
2022/07/02 06:00:47;;;;;;;;;12.25;12.00;;;;;17.12;58.50;101818.16;6276921;22;73784;-75
2022/07/02 06:03:22;;;;;;;;;;;;;;;;;;;;;
2022/07/02 06:08:42;;;;;;;;;10.00;9.75;;;;;17.23;58.30;101812.69;6277914;22;45346;-74
2022/07/02 06:11:11;;;;;;;;;12.25;10.25;;;;;17.30;58.00;101814.38;6248896;22;46958;-75
2022/07/02 06:13:51;;;;;;;;;;;;;;;;;;;;;
2022/07/02 06:16:29;;;;;;;;;;;;;;;;;;;;;
2022/07/02 06:19:00;;;;;;;;;10.50;10.50;;;;;17.42;58.14;101808.00;6277792;22;72697;-75
2022/07/02 06:21:35;;;;;;;;;;;;;;;;;;;;;
2022/07/02 06:24:19;;;;;;;;;;;;;;;;;;;;;
2022/07/02 06:26:56;;;;;;;;;;;;;;;;;;;;;
2022/07/02 06:29:34;;;;;;;;;;;;;;;;;;;;;
2022/07/02 06:32:10;;;;;;;;;;;;;;;;;;;;;
2022/07/02 06:34:36;;;;;;;;;9.00;9.00;;;;;17.77;55.33;101811.88;6276237;22;72867;-75
2022/07/02 06:37:11;;;;;;;;;;;;;;;;;;;;;
2022/07/02 06:39:37;;;;;;;;;9.00;8.75;;;;;17.92;54.40;101800.13;6277930;22;72877;-74
2022/07/02 06:42:36;;;;;;;;;;;;;;;;;;;;;
2022/07/02 06:45:02;;;;;;;;;10.50;8.50;;;;;18.08;53.90;101807.81;6277472;22;72070;-74
2022/07/02 06:47:30;;;;;;;;;7.75;6.75;;;;;18.17;53.50;101808.56;6278299;22;45359;-75
2022/07/02 06:50:07;;;;;;;;;;;;;;;;;;;;;
2022/07/02 07:00:14;;;;;;;;;;;;;;;;;;;;;
2022/07/02 07:03:27;;;;;;;;;;;;;;;;;;;;;
2022/07/02 07:07:25;;;;;;;;;;;;;;;;;;;;;
2022/07/02 07:10:12;;;;;;;;;;;;;;;;;;;;;
2022/07/02 07:13:38;;;;;;;;;;;;;;;;;;;;;
2022/07/02 07:16:30;;;;;;;;;3.00;3.00;;;;;19.03;48.88;101805.09;6272949;22;45488;-75
2022/07/02 07:21:53;;;;;;;;;2.33;2.33;;;;;19.24;47.03;101805.53;6255640;22;45399;-76
2022/07/02 07:24:19;;;;;;;;;2.00;1.00;;;;;19.33;47.51;101791.97;6278849;22;45277;-76
2022/07/02 07:26:44;;;;;;;;;1.67;1.67;;;;;19.45;46.73;101801.47;6250955;22;45392;-77
2022/07/02 07:29:10;;;;;;;;;1.33;1.33;;;;;19.52;46.73;101798.63;6251012;22;46126;-77
2022/07/02 07:31:36;;;;;;;;;1.33;1.33;;;;;19.60;46.63;101790.44;6279722;22;45341;-77
2022/07/02 07:34:03;;;;;;;;;1.33;1.33;;;;;19.69;46.09;101789.34;6280275;22;45217;-77
2022/07/02 07:36:28;;;;;;;;;4.00;1.67;;;;;19.77;45.75;101792.72;6276540;22;45216;-78
2022/07/02 07:38:53;;;;;;;;;3.67;2.00;;;;;19.87;45.55;101788.91;6278213;22;45244;-79
2022/07/02 07:41:20;;;;;;;;;2.00;1.33;;;;;19.95;45.26;101788.69;6278706;22;45172;-78
2022/07/02 07:43:46;;;;;;;;;1.00;1.00;;;;;20.05;45.49;101790.22;6278307;22;45357;-76
2022/07/02 07:46:12;;;;;;;;;1.67;1.67;;;;;20.14;44.91;101791.75;6278505;22;45371;-75
2022/07/02 07:48:37;;;;;;;;;1.33;1.33;;;;;20.22;44.54;101784.41;6277714;22;46184;-76
2022/07/02 07:51:05;;;;;;;;;1.67;1.00;;;;;20.30;44.10;101786.88;6278573;22;45341;-76
2022/07/02 07:53:30;;;;;;;;;1.67;1.67;;;;;20.39;44.22;101782.13;6278442;22;45406;-76
2022/07/02 07:55:55;;;;;;;;;2.00;2.00;;;;;20.46;43.70;101781.06;6275918;22;45385;-76
2022/07/02 07:58:21;;;;;;;;;1.33;1.33;;;;;20.55;43.54;101785.28;6250443;22;47779;-77
2022/07/02 08:00:47;;;;;;;;;1.00;0.00;;;;;20.61;43.09;101782.47;6275756;22;45512;-78
2022/07/02 08:03:14;;;;;;;;;2.00;1.00;;;;;20.68;42.27;101784.00;6278217;22;45350;-76
2022/07/02 08:05:41;;;;;;;;;0.00;0.00;;;;;20.74;42.15;101774.91;6278585;22;45159;-76
2022/07/02 08:08:07;;;;;;;;;0.00;0.00;;;;;20.79;42.48;101786.38;6277719;22;45386;-75
2022/07/02 08:10:33;;;;;;;;;2.00;1.00;;;;;20.87;42.00;101780.78;6278188;22;45272;-75
2022/07/02 08:12:58;;;;;;;;;0.33;0.33;;;;;20.93;41.93;101767.25;6249492;22;45403;-75
2022/07/02 08:15:24;;;;;;;;;0.33;0.33;;;;;20.98;41.38;101770.63;6277914;22;45263;-75
2022/07/02 08:17:50;;;;;;;;;1.00;1.00;;;;;21.05;41.40;101774.88;6277435;22;45412;-76
2022/07/02 08:20:15;;;;;;;;;0.67;0.67;;;;;21.12;41.29;101780.94;6277583;22;45362;-75
2022/07/02 08:22:42;;;;;;;;;0.67;0.67;;;;;21.18;41.03;101772.72;6278067;22;45426;-76
2022/07/02 08:25:08;;;;;;;;;4.00;1.33;;;;;21.24;40.89;101769.81;6278186;22;45383;-82
2022/07/02 08:27:34;;;;;;;;;0.67;0.67;;;;;21.34;41.28;101771.28;6275836;22;46214;-77
2022/07/02 08:29:59;;;;;;;;;0.33;0.33;;;;;21.47;41.17;101774.50;6277795;22;45181;-78
2022/07/02 08:32:25;;;;;;;;;1.00;1.00;;;;;21.58;40.83;101766.09;6271923;22;45359;-76
2022/07/02 08:34:53;;;;;;;;;0.67;0.33;;;;;21.70;40.40;101767.47;6275633;22;45544;-77
2022/07/02 08:37:20;;;;;;;;;2.00;0.67;;;;;21.76;40.34;101770.84;6247651;22;46244;-77
2022/07/02 08:39:46;;;;;;;;;0.67;0.67;;;;;21.83;39.80;101768.81;6276042;22;45737;-77
2022/07/02 08:42:24;;;;;;;;;0.67;0.67;;;;;21.87;39.72;101766.94;6275837;22;45452;-77
2022/07/02 08:44:52;;;;;;;;;1.00;1.00;;;;;21.94;39.55;101771.13;6276755;22;45304;-77
2022/07/02 08:47:19;;;;;;;;;1.00;1.00;;;;;22.03;39.51;101766.31;6273218;22;46845;-77
2022/07/02 08:49:47;;;;;;;;;1.00;1.00;;;;;22.08;39.42;101759.91;6276016;22;45351;-77
2022/07/02 08:52:16;;;;;;;;;1.33;0.00;;;;;22.12;39.12;101764.25;6275975;22;45188;-77
2022/07/02 08:54:42;;;;;;;;;0.00;0.00;;;;;22.17;38.74;101768.50;6275011;22;45437;-78
2022/07/02 08:57:11;;;;;;;;;2.33;1.33;;;;;22.24;39.02;101759.34;6277287;22;46066;-79
2022/07/02 08:59:36;;;;;;;;;1.00;1.00;;;;;22.35;38.74;101753.59;6248251;22;45278;-79
2022/07/02 09:02:02;;;;;;;;;0.00;0.00;;;;;22.44;38.56;101747.00;6242841;22;45382;-77
2022/07/02 09:04:29;;;;;;;;;1.00;1.00;;;;;22.51;38.49;101751.22;6249687;22;45213;-78
2022/07/02 09:06:57;;;;;;;;;1.00;1.00;;;;;22.58;37.86;101757.22;6248813;22;47014;-76
2022/07/02 09:09:27;;;;;;;;;1.00;1.00;;;;;22.59;37.46;101749.13;6249208;22;45428;-78
2022/07/02 09:11:53;;;;;;;;;0.00;0.00;;;;;22.63;37.67;101753.44;6277183;22;45175;-77
2022/07/02 09:14:20;;;;;;;;;0.00;0.00;;;;;22.64;37.06;101747.13;6243831;22;45454;-79
2022/07/02 09:16:47;;;;;;;;;0.00;0.00;;;;;22.61;36.49;101746.38;6243804;22;45381;-79
2022/07/02 09:19:12;;;;;;;;;0.00;0.00;;;;;22.61;36.80;101741.91;6245714;22;45321;-79
2022/07/02 09:21:43;;;;;;;;;1.00;0.67;;;;;22.64;37.06;101751.59;6246171;22;45287;-78
2022/07/02 09:24:09;;;;;;;;;0.00;0.00;;;;;22.74;36.38;101757.50;6245917;22;45169;-79
2022/07/02 09:26:34;;;;;;;;;1.00;0.33;;;;;22.77;36.35;101752.88;6243413;22;46620;-79
2022/07/02 09:29:03;;;;;;;;;0.00;0.00;;;;;22.79;36.67;101748.34;6270029;22;45472;-80
2022/07/02 09:31:30;;;;;;;;;0.00;0.00;;;;;22.81;36.85;101750.97;6244160;22;45444;-80
2022/07/02 09:33:56;;;;;;;;;0.00;0.00;;;;;22.83;36.56;101746.44;6246160;22;45614;-79
2022/07/02 09:36:23;;;;;;;;;0.00;0.00;;;;;22.84;36.04;101741.00;6217892;22;46776;-79
2022/07/02 09:38:50;;;;;;;;;0.00;0.00;;;;;22.84;36.25;101743.69;6244137;22;45616;-79
2022/07/02 09:41:23;;;;;;;;;0.00;0.00;;;;;22.87;36.29;101743.56;6243865;22;45285;-79
2022/07/02 09:44:09;;;;;;;;;;;;;;;;;;;;;
2022/07/02 09:46:37;;;;;;;;;0.67;0.67;;;;;22.96;36.42;101736.06;6244006;22;74040;-78
2022/07/02 09:49:08;;;;;;;;;1.00;1.00;;;;;23.05;36.21;101738.44;6245824;22;45378;-79
2022/07/02 09:51:46;;;;;;;;;1.00;1.00;;;;;23.13;36.18;101740.81;6245361;22;45256;-78
2022/07/02 09:54:18;;;;;;;;;1.33;1.33;;;;;23.21;35.57;101738.69;6268959;22;45803;-78
2022/07/02 09:56:59;;;;;;;;;1.67;1.00;;;;;23.26;35.70;101728.63;6269280;22;46988;-78
2022/07/02 09:59:32;;;;;;;;;0.33;0.33;;;;;23.32;34.96;101729.25;6269555;22;45323;-77
2022/07/02 10:02:17;;;;;;;;;0.00;0.00;;;;;23.41;34.93;101727.09;6243190;22;45430;-78
2022/07/02 10:04:44;;;;;;;;;1.00;1.00;;;;;23.47;35.10;101725.06;6245355;22;45280;-77
2022/07/02 10:07:10;;;;;;;;;1.00;1.00;;;;;23.51;34.65;101721.28;6244049;22;45971;-77
2022/07/02 10:09:39;;;;;;;;;0.67;0.67;;;;;23.55;35.29;101712.16;6267103;22;45349;-78
2022/07/02 10:12:08;;;;;;;;;0.00;0.00;;;;;23.67;35.16;101709.88;6245045;22;45272;-78
2022/07/02 10:14:38;;;;;;;;;0.00;0.00;;;;;23.74;34.98;101704.22;6275847;22;45257;-79
2022/07/02 10:17:18;;;;;;;;;;;;;;;;;;;;;
2022/07/02 10:19:47;;;;;;;;;3.00;3.00;;;;;23.95;34.46;101699.72;6275960;22;73273;-79
2022/07/02 10:22:14;;;;;;;;;1.33;0.00;;;;;24.01;34.24;101705.75;6249919;22;45236;-78
2022/07/02 10:24:43;;;;;;;;;2.00;2.00;;;;;23.99;34.60;101700.44;6275872;22;45276;-80
2022/07/02 10:27:19;;;;;;;;;;;;;;;;;;;;;
2022/07/02 10:29:59;;;;;;;;;;;;;;;;;;;;;
2022/07/02 10:33:04;;;;;;;;;;;;;;;;;;;;;
2022/07/02 10:35:32;;;;;;;;;0.00;0.00;;;;;24.02;34.16;101689.53;6275777;22;72854;-79
2022/07/02 10:38:06;;;;;;;;;2.00;2.00;;;;;24.07;33.09;101690.19;6276781;22;45335;-81
2022/07/02 10:40:42;;;;;;;;;;;;;;;;;;;;;
2022/07/02 10:43:26;;;;;;;;;;;;;;;;;;;;;
2022/07/02 10:46:16;;;;;;;;;1.33;1.33;;;;;24.35;33.32;101686.25;6275970;22;72904;-80
2022/07/02 10:48:59;;;;;;;;;;;;;;;;;;;;;
2022/07/02 10:51:34;;;;;;;;;1.00;1.00;;;;;24.62;32.65;101687.69;6278955;22;71385;-81
2022/07/02 10:54:07;;;;;;;;;5.00;3.67;;;;;24.69;32.69;101679.31;6279627;22;45368;-81
2022/07/02 10:56:55;;;;;;;;;;;;;;;;;;;;;
2022/07/02 10:59:48;;;;;;;;;;;;;;;;;;;;;
2022/07/02 11:02:29;;;;;;;;;;;;;;;;;;;;;
2022/07/02 11:05:16;;;;;;;;;;;;;;;;;;;;;
2022/07/02 11:07:53;;;;;;;;;;;;;;;;;;;;;
2022/07/02 11:10:36;;;;;;;;;;;;;;;;;;;;;
2022/07/02 11:13:15;;;;;;;;;;;;;;;;;;;;;
2022/07/02 11:15:51;;;;;;;;;;;;;;;;;;;;;
2022/07/02 11:18:17;;;;;;;;;0.00;0.00;;;;;25.47;31.67;101670.06;6274232;22;73127;-82
2022/07/02 11:20:52;;;;;;;;;;;;;;;;;;;;;
2022/07/02 11:23:18;;;;;;;;;0.00;0.00;;;;;25.50;31.33;101676.19;6275791;22;71798;-83
2022/07/02 11:25:54;;;;;;;;;;;;;;;;;;;;;
2022/07/02 11:28:31;;;;;;;;;;;;;;;;;;;;;
2022/07/02 11:31:09;;;;;;;;;;;;;;;;;;;;;
2022/07/02 11:33:42;;;;;;;;;0.00;0.00;;;;;25.85;30.70;101665.41;6275826;22;71859;-80
2022/07/02 11:36:18;;;;;;;;;;;;;;;;;;;;;
2022/07/02 11:38:56;;;;;;;;;;;;;;;;;;;;;
2022/07/02 11:41:30;;;;;;;;;1.00;1.00;;;;;26.06;30.96;101658.00;6275392;22;74011;-82
2022/07/02 11:44:06;;;;;;;;;0.33;0.33;;;;;26.12;30.70;101649.56;6248677;22;45416;-81
2022/07/02 11:46:41;;;;;;;;;;;;;;;;;;;;;
2022/07/02 11:49:14;;;;;;;;;0.33;0.00;;;;;26.24;30.54;101644.44;6276023;22;72840;-79
2022/07/02 11:51:50;;;;;;;;;;;;;;;;;;;;;
2022/07/02 11:54:16;;;;;;;;;2.00;1.33;;;;;26.37;30.59;101642.78;6273953;22;71691;-81
2022/07/02 11:56:57;;;;;;;;;2.67;1.00;;;;;26.45;30.91;101642.38;6277475;22;45629;-80
2022/07/02 11:59:34;;;;;;;;;2.33;1.33;;;;;26.51;30.36;101636.63;6253994;22;45354;-83
2022/07/02 12:02:00;;;;;;;;;2.00;2.00;;;;;26.67;30.44;101637.50;6248621;22;47152;-77
2022/07/02 12:04:26;;;;;;;;;2.00;0.67;;;;;26.85;30.34;101643.69;6275307;22;45352;-77
2022/07/02 12:06:53;;;;;;;;;0.33;0.33;;;;;27.00;30.07;101625.75;6249280;22;45182;-74
2022/07/02 12:09:24;;;;;;;;;0.67;0.33;;;;;27.12;29.30;101622.28;6276569;22;45254;-74
2022/07/02 12:11:51;;;;;;;;;2.67;1.67;;;;;27.24;29.32;101627.00;6248409;22;48270;-74
2022/07/02 12:14:23;;;;;;;;;1.67;0.67;;;;;27.24;28.86;101620.75;6248662;22;45280;-75
2022/07/02 12:16:51;;;;;;;;;0.00;0.00;;;;;27.29;28.56;101613.19;6246793;22;45474;-75
2022/07/02 12:19:17;;;;;;;;;1.00;1.00;;;;;27.32;29.46;101604.03;6274211;22;45454;-74
2022/07/02 12:21:50;;;;;;;;;1.33;0.67;;;;;27.32;29.03;101610.34;6275822;22;45553;-74
2022/07/02 12:24:34;;;;;;;;;1.00;1.00;;;;;27.35;28.40;101601.16;6276845;22;45382;-74
2022/07/02 12:27:01;;;;;;;;;1.00;1.00;;;;;27.44;28.83;101601.44;6276251;22;45342;-75
2022/07/02 12:32:15;;;;;;;;;1.00;1.00;;;;;27.67;28.10;101593.78;6276171;22;45693;-75
2022/07/02 12:34:46;;;;;;;;;1.33;1.33;;;;;27.82;28.49;101587.41;6248177;22;45154;-74
2022/07/02 12:37:29;;;;;;;;;1.33;1.00;;;;;28.03;28.46;101584.31;6275939;22;45262;-74
2022/07/02 12:40:03;;;;;;;;;2.33;1.00;;;;;28.19;28.43;101587.78;6277899;22;45257;-75
2022/07/02 12:42:33;;;;;;;;;0.00;0.00;;;;;28.29;27.58;101578.09;6276232;22;45483;-74
2022/07/02 12:45:03;;;;;;;;;0.33;0.33;;;;;28.37;27.75;101569.47;6277516;22;45354;-74
2022/07/02 12:47:39;;;;;;;;;0.67;0.67;;;;;28.50;27.58;101564.16;6249228;22;45300;-75